Time;durP1;ratioP1;P1;durP2;ratioP2;P2;SDS_P1;SDS_P2;PMS_P1;PMS_P2;Temp;Humidity;BMP_temperature;BMP_pressure;BME280_temperature;BME280_humidity;BME280_pressure;Samples;Min_cycle;Max_cycle;Signal;HPM_P1;HPM_P2
2022/03/16 00:01:08;;;;;;;10.60;9.40;;;7.40;99.90;;;;;;5053040;28;20210;-70
2022/03/16 00:03:33;;;;;;;12.00;10.30;;;7.50;99.90;;;;;;5052527;28;20630;-70
2022/03/16 00:05:59;;;;;;;10.50;9.03;;;7.30;99.90;;;;;;5052746;28;20425;-70
2022/03/16 00:08:28;;;;;;;10.40;9.30;;;7.50;99.90;;;;;;5051887;28;20176;-70
2022/03/16 00:10:55;;;;;;;13.60;10.27;;;7.70;99.90;;;;;;5052735;28;20214;-70
2022/03/16 00:13:21;;;;;;;10.73;9.60;;;7.70;99.90;;;;;;5052195;28;20808;-70
2022/03/16 00:15:46;;;;;;;11.80;9.73;;;7.80;99.90;;;;;;5052603;28;20428;-70
2022/03/16 00:18:13;;;;;;;11.43;10.23;;;7.80;99.90;;;;;;5052607;28;20172;-70
2022/03/16 00:20:39;;;;;;;14.33;9.97;;;7.90;99.90;;;;;;5052523;28;20235;-70
2022/03/16 00:23:05;;;;;;;10.07;9.10;;;8.10;99.90;;;;;;5052282;28;20419;-70
2022/03/16 00:25:30;;;;;;;14.20;10.43;;;8.00;99.90;;;;;;5051963;28;20414;-70
2022/03/16 00:27:56;;;;;;;11.50;10.33;;;8.10;99.90;;;;;;5052476;28;20418;-70
2022/03/16 00:30:22;;;;;;;11.93;9.53;;;8.10;99.90;;;;;;5052086;28;20181;-70
2022/03/16 00:32:47;;;;;;;10.90;8.97;;;8.00;99.90;;;;;;5052213;28;20693;-70
2022/03/16 00:35:13;;;;;;;14.77;10.43;;;8.00;99.90;;;;;;5051213;28;20177;-70
2022/03/16 00:37:39;;;;;;;10.63;9.37;;;8.00;99.90;;;;;;5052109;28;20176;-70
2022/03/16 00:40:05;;;;;;;11.53;8.90;;;7.90;99.90;;;;;;5052594;28;20560;-70
2022/03/16 00:42:31;;;;;;;77.30;34.63;;;7.90;99.90;;;;;;5051673;28;20242;-70
2022/03/16 00:44:57;;;;;;;66.27;27.37;;;7.80;99.90;;;;;;5052366;28;20444;-70
2022/03/16 00:47:22;;;;;;;33.70;18.03;;;7.80;99.90;;;;;;5050540;28;20177;-70
2022/03/16 00:49:48;;;;;;;19.40;12.93;;;7.80;99.90;;;;;;5051969;28;20177;-70
2022/03/16 00:52:14;;;;;;;14.87;11.90;;;7.70;99.90;;;;;;5052315;28;20263;-70
2022/03/16 00:54:39;;;;;;;15.07;10.93;;;7.70;99.90;;;;;;5051639;28;20187;-70
2022/03/16 00:57:05;;;;;;;16.40;11.30;;;7.70;99.90;;;;;;5052299;28;20181;-70
2022/03/16 00:59:31;;;;;;;18.63;13.30;;;7.80;99.90;;;;;;5051634;28;20172;-70
2022/03/16 01:01:57;;;;;;;18.10;13.77;;;7.70;99.90;;;;;;5050813;28;20204;-70
2022/03/16 01:04:23;;;;;;;13.67;11.63;;;7.60;99.90;;;;;;5051810;28;20667;-70
2022/03/16 01:06:53;;;;;;;13.53;10.20;;;7.70;99.90;;;;;;5052093;28;20415;-70
2022/03/16 01:09:19;;;;;;;12.93;10.63;;;7.50;99.90;;;;;;5051426;28;20414;-70
2022/03/16 01:11:45;;;;;;;15.53;11.03;;;7.50;99.90;;;;;;5051963;28;20832;-70
2022/03/16 01:14:10;;;;;;;13.50;11.10;;;7.50;99.90;;;;;;5052045;28;20500;-70
2022/03/16 01:16:39;;;;;;;14.30;9.60;;;7.50;99.90;;;;;;5050027;28;20855;-70
2022/03/16 01:19:05;;;;;;;15.60;10.93;;;7.50;99.90;;;;;;5052047;28;20183;-70
2022/03/16 01:21:31;;;;;;;17.60;10.57;;;7.50;99.90;;;;;;5050948;28;20470;-70
2022/03/16 01:23:57;;;;;;;17.97;10.83;;;7.50;99.90;;;;;;5052316;28;20432;-70
2022/03/16 01:26:23;;;;;;;20.53;10.67;;;7.40;99.90;;;;;;5051359;28;20775;-70
2022/03/16 01:28:48;;;;;;;21.20;11.80;;;7.40;99.90;;;;;;5051959;28;20410;-70
2022/03/16 01:31:14;;;;;;;14.70;10.20;;;7.30;99.90;;;;;;5052025;28;20221;-70
2022/03/16 01:33:40;;;;;;;14.37;11.07;;;7.10;99.90;;;;;;5051322;28;20184;-70
2022/03/16 01:36:06;;;;;;;16.33;10.50;;;7.10;99.90;;;;;;5051862;28;20179;-70
2022/03/16 01:38:31;;;;;;;15.63;10.10;;;7.10;99.90;;;;;;5051533;28;20284;-70
2022/03/16 01:40:57;;;;;;;24.57;9.73;;;7.10;99.90;;;;;;5051728;28;20730;-70
2022/03/16 01:43:24;;;;;;;21.23;11.47;;;7.10;99.90;;;;;;5051536;28;20188;-70
2022/03/16 01:45:51;;;;;;;14.07;10.50;;;7.10;99.90;;;;;;5054704;28;20207;-70
2022/03/16 01:48:18;;;;;;;15.10;10.13;;;6.90;99.90;;;;;;5055331;28;20780;-70
2022/03/16 01:50:44;;;;;;;35.50;10.93;;;6.90;99.90;;;;;;5054726;28;20518;-70
2022/03/16 01:53:11;;;;;;;17.57;9.90;;;6.80;99.90;;;;;;5055317;28;20419;-70
2022/03/16 01:55:39;;;;;;;14.23;9.80;;;6.80;99.90;;;;;;5053173;28;20425;-70
2022/03/16 01:58:05;;;;;;;23.73;10.87;;;6.90;99.90;;;;;;5054873;28;20429;-70
2022/03/16 02:00:31;;;;;;;17.73;10.23;;;6.90;99.90;;;;;;5054323;28;21013;-70
2022/03/16 02:02:57;;;;;;;20.93;9.93;;;6.90;99.90;;;;;;5054212;28;20517;-70
2022/03/16 02:05:23;;;;;;;12.10;10.30;;;7.00;99.90;;;;;;5054209;28;20179;-70
2022/03/16 02:07:49;;;;;;;17.77;10.50;;;6.90;99.90;;;;;;5054964;28;20187;-70
2022/03/16 02:10:15;;;;;;;20.83;10.70;;;6.50;99.90;;;;;;5053787;28;20172;-70
2022/03/16 02:12:46;;;;;;;13.93;10.03;;;6.90;99.90;;;;;;5054057;28;20515;-70
2022/03/16 02:15:12;;;;;;;17.90;10.30;;;7.10;99.90;;;;;;5054904;28;20396;-70
2022/03/16 02:17:38;;;;;;;18.65;10.65;;;6.90;99.90;;;;;;5054176;28;20409;-70
2022/03/16 02:20:06;;;;;;;13.70;10.73;;;6.90;99.90;;;;;;5054413;28;20218;-70
2022/03/16 02:22:36;;;;;;;13.90;10.07;;;6.90;99.90;;;;;;5053964;28;20551;-70
2022/03/16 02:25:02;;;;;;;23.70;10.50;;;6.90;99.90;;;;;;5054905;28;20394;-70
2022/03/16 02:27:27;;;;;;;12.40;9.73;;;6.90;99.90;;;;;;5052855;28;20432;-70
2022/03/16 02:29:53;;;;;;;13.53;9.53;;;6.90;99.90;;;;;;5053413;28;20427;-70
2022/03/16 02:32:18;;;;;;;11.67;9.40;;;6.90;99.90;;;;;;5054127;28;20187;-70
2022/03/16 02:34:44;;;;;;;10.30;9.20;;;6.70;99.90;;;;;;5053916;28;20179;-70
2022/03/16 02:37:10;;;;;;;11.77;9.70;;;7.00;99.90;;;;;;5054440;28;20171;-70
2022/03/16 02:39:35;;;;;;;11.33;9.87;;;7.00;99.90;;;;;;5053504;28;20215;-70
2022/03/16 02:42:02;;;;;;;11.87;9.23;;;7.00;99.90;;;;;;5053137;28;20217;-70
2022/03/16 02:44:27;;;;;;;9.90;8.90;;;7.00;99.90;;;;;;5053664;28;20530;-70
2022/03/16 02:46:53;;;;;;;11.47;9.47;;;6.70;99.90;;;;;;5053051;28;20418;-70
2022/03/16 02:49:19;;;;;;;10.53;8.80;;;6.80;99.90;;;;;;5053903;28;20170;-70
2022/03/16 02:51:45;;;;;;;10.30;9.17;;;6.70;99.90;;;;;;5053836;28;20591;-70
2022/03/16 02:54:10;;;;;;;11.60;10.13;;;6.60;99.90;;;;;;5054407;28;20205;-70
2022/03/16 02:56:36;;;;;;;11.60;9.77;;;6.50;99.90;;;;;;5053584;28;20179;-70
2022/03/16 02:59:02;;;;;;;12.43;10.70;;;6.60;99.90;;;;;;5054028;28;20182;-70
2022/03/16 03:01:29;;;;;;;14.03;10.40;;;6.70;99.90;;;;;;5053338;28;20569;-70
2022/03/16 03:03:56;;;;;;;11.70;9.87;;;6.70;99.90;;;;;;5053880;28;20429;-70
2022/03/16 03:06:21;;;;;;;11.90;10.40;;;6.70;99.90;;;;;;5052654;28;20418;-70
2022/03/16 03:08:48;;;;;;;10.57;9.40;;;6.80;99.90;;;;;;5053203;28;20418;-70
2022/03/16 03:11:14;;;;;;;13.80;10.33;;;6.90;99.90;;;;;;5054041;28;20186;-70
2022/03/16 03:13:40;;;;;;;13.30;9.43;;;6.80;99.90;;;;;;5053358;28;20414;-70
2022/03/16 03:16:06;;;;;;;15.43;11.10;;;6.80;99.90;;;;;;5053918;28;20432;-70
2022/03/16 03:18:35;;;;;;;20.97;12.73;;;6.80;99.90;;;;;;5051903;28;20409;-70
2022/03/16 03:21:02;;;;;;;19.87;12.17;;;7.00;99.90;;;;;;5053155;28;20257;-70
2022/03/16 03:23:28;;;;;;;19.45;12.48;;;6.70;99.90;;;;;;5052912;28;20758;-71
2022/03/16 03:25:53;;;;;;;33.47;12.30;;;6.90;99.90;;;;;;5053455;28;20182;-70
2022/03/16 03:28:19;;;;;;;21.60;12.47;;;6.60;99.90;;;;;;5053720;28;20891;-70
2022/03/16 03:30:45;;;;;;;16.57;11.97;;;6.60;99.90;;;;;;5052651;28;20180;-70
2022/03/16 03:33:11;;;;;;;16.77;11.90;;;6.60;99.90;;;;;;5053478;28;20255;-70
2022/03/16 03:35:37;;;;;;;19.50;11.40;;;6.60;99.90;;;;;;5052730;28;20600;-70
2022/03/16 03:38:02;;;;;;;14.50;11.83;;;6.70;99.90;;;;;;5053624;28;20462;-70
2022/03/16 03:40:28;;;;;;;18.37;10.57;;;6.60;99.90;;;;;;5052262;28;20175;-70
2022/03/16 03:42:54;;;;;;;19.33;11.77;;;6.60;99.90;;;;;;5053347;28;20406;-70
2022/03/16 03:45:20;;;;;;;18.63;11.50;;;6.60;99.90;;;;;;5053201;28;20559;-70
2022/03/16 03:47:45;;;;;;;49.90;10.93;;;6.60;99.90;;;;;;5052560;28;20460;-70
2022/03/16 03:50:11;;;;;;;20.40;12.07;;;6.60;99.90;;;;;;5053098;28;20197;-70
2022/03/16 03:52:37;;;;;;;22.40;11.90;;;6.60;99.90;;;;;;5051375;28;20256;-70
2022/03/16 03:55:04;;;;;;;16.50;10.73;;;6.60;99.90;;;;;;5052981;28;20221;-70
2022/03/16 03:57:30;;;;;;;18.07;10.60;;;6.60;99.90;;;;;;5051059;28;20936;-70
2022/03/16 03:59:55;;;;;;;14.47;9.93;;;6.70;99.90;;;;;;5053110;28;20414;-70
2022/03/16 04:02:21;;;;;;;12.40;9.80;;;6.70;99.90;;;;;;5052390;28;20205;-70
2022/03/16 04:04:47;;;;;;;17.47;10.80;;;6.80;99.90;;;;;;5052228;28;20194;-70
2022/03/16 04:07:12;;;;;;;13.20;10.47;;;6.70;99.90;;;;;;5051159;28;20623;-70
2022/03/16 04:09:38;;;;;;;14.33;11.03;;;6.70;99.90;;;;;;5052163;28;20269;-70
2022/03/16 04:12:04;;;;;;;10.77;8.67;;;6.70;99.90;;;;;;5052751;28;20179;-70
2022/03/16 04:14:30;;;;;;;10.03;8.37;;;6.70;99.90;;;;;;5051944;28;20561;-70
2022/03/16 04:16:55;;;;;;;16.40;8.80;;;6.70;99.90;;;;;;5052665;28;20467;-70
2022/03/16 04:19:21;;;;;;;17.80;8.10;;;6.70;99.90;;;;;;5052592;28;20254;-70
2022/03/16 04:21:47;;;;;;;12.30;7.33;;;6.70;99.90;;;;;;5052042;28;20228;-70
2022/03/16 04:24:13;;;;;;;12.80;8.57;;;6.60;99.90;;;;;;5052564;28;20182;-70
2022/03/16 04:26:38;;;;;;;20.98;7.60;;;6.70;99.90;;;;;;5051920;28;20183;-70
2022/03/16 04:29:04;;;;;;;9.43;7.73;;;6.60;99.90;;;;;;5052567;28;20706;-70
2022/03/16 04:31:30;;;;;;;11.13;7.40;;;6.60;99.90;;;;;;5050741;28;20619;-70
2022/03/16 04:33:57;;;;;;;7.53;6.77;;;6.60;99.90;;;;;;5052445;28;20265;-70
2022/03/16 04:36:23;;;;;;;7.20;6.50;;;6.50;99.90;;;;;;5051587;28;20264;-69
2022/03/16 04:38:50;;;;;;;8.23;7.53;;;6.50;99.90;;;;;;5051891;28;20912;-69
2022/03/16 04:41:16;;;;;;;12.25;7.63;;;6.20;99.90;;;;;;5052318;28;20240;-70
2022/03/16 04:43:41;;;;;;;7.97;7.27;;;6.50;99.90;;;;;;5052096;28;20609;-70
2022/03/16 04:46:07;;;;;;;15.63;8.00;;;6.40;99.90;;;;;;5051355;28;20531;-70
2022/03/16 04:48:33;;;;;;;9.57;7.50;;;6.40;99.90;;;;;;5051811;28;20256;-70
2022/03/16 04:50:58;;;;;;;8.63;7.73;;;6.10;99.90;;;;;;5052032;28;20264;-70
2022/03/16 04:53:24;;;;;;;11.13;8.10;;;6.20;99.90;;;;;;5052318;28;20170;-70
2022/03/16 04:55:50;;;;;;;8.30;7.50;;;6.20;99.90;;;;;;5051676;28;20181;-70
2022/03/16 04:58:16;;;;;;;11.90;9.20;;;5.90;99.90;;;;;;5052290;28;20174;-70
2022/03/16 05:00:41;;;;;;;17.37;9.43;;;6.10;99.90;;;;;;5051413;28;20177;-70
2022/03/16 05:03:07;;;;;;;11.67;9.60;;;6.00;99.90;;;;;;5052074;28;20188;-70
2022/03/16 05:05:33;;;;;;;10.67;9.60;;;5.80;99.90;;;;;;5051661;28;20495;-68
2022/03/16 05:07:59;;;;;;;9.77;8.73;;;5.80;99.90;;;;;;5052501;28;20615;-68
2022/03/16 05:10:24;;;;;;;11.63;8.93;;;5.90;99.90;;;;;;5052128;28;20629;-69
2022/03/16 05:12:50;;;;;;;11.13;9.47;;;5.90;99.90;;;;;;5051513;28;20544;-69
2022/03/16 05:15:18;;;;;;;18.00;9.67;;;6.00;99.90;;;;;;5052054;28;20181;-69
2022/03/16 05:17:44;;;;;;;13.88;8.90;;;6.10;99.90;;;;;;5051469;28;20409;-69
2022/03/16 05:20:11;;;;;;;10.18;9.05;;;6.10;99.90;;;;;;5052301;28;20607;-69
2022/03/16 05:22:43;;;;;;;13.75;9.77;;;6.10;99.90;;;;;;5054979;28;20559;-70
2022/03/16 05:25:11;;;;;;;9.80;8.75;;;6.20;99.90;;;;;;5055910;28;20188;-69
2022/03/16 05:27:37;;;;;;;10.02;9.02;;;6.20;99.90;;;;;;5055415;28;20183;-70
2022/03/16 05:30:04;;;;;;;17.80;10.30;;;6.20;99.90;;;;;;5055361;28;20538;-69
2022/03/16 05:32:34;;;;;;;11.77;10.57;;;6.20;99.90;;;;;;5055550;28;20191;-69
2022/03/16 05:35:00;;;;;;;10.45;9.07;;;6.10;99.90;;;;;;5055657;28;20174;-69
2022/03/16 05:37:25;;;;;;;10.03;9.00;;;5.80;99.90;;;;;;5055583;28;20181;-69
2022/03/16 05:39:52;;;;;;;14.30;10.03;;;6.00;99.90;;;;;;5053664;28;20178;-69
2022/03/16 05:42:19;;;;;;;14.73;9.90;;;5.60;99.90;;;;;;5055392;28;20216;-69
2022/03/16 05:44:44;;;;;;;18.67;9.27;;;6.00;99.90;;;;;;5054762;28;20178;-69
2022/03/16 05:47:11;;;;;;;20.83;8.37;;;6.00;99.90;;;;;;5054115;28;20436;-69
2022/03/16 05:49:38;;;;;;;36.45;9.68;;;6.00;99.90;;;;;;5054742;28;20167;-69
2022/03/16 05:52:05;;;;;;;16.60;9.10;;;6.00;99.90;;;;;;5054902;28;20631;-69
2022/03/16 05:54:31;;;;;;;10.15;9.15;;;5.90;99.90;;;;;;5055436;28;20174;-69
2022/03/16 05:56:56;;;;;;;14.63;10.10;;;6.10;99.90;;;;;;5054540;28;20173;-69
2022/03/16 05:59:22;;;;;;;12.57;8.87;;;5.90;99.90;;;;;;5055266;28;20178;-69
2022/03/16 06:01:48;;;;;;;10.07;9.10;;;5.90;99.90;;;;;;5054578;28;20670;-69
2022/03/16 06:04:13;;;;;;;8.93;8.13;;;5.80;99.90;;;;;;5055325;28;20193;-69
2022/03/16 06:06:39;;;;;;;14.87;8.40;;;5.90;99.90;;;;;;5054110;28;20232;-69
2022/03/16 06:09:05;;;;;;;9.57;8.67;;;5.40;99.90;;;;;;5053784;28;20537;-69
2022/03/16 06:11:31;;;;;;;10.73;9.53;;;5.70;99.90;;;;;;5055009;28;20177;-69
2022/03/16 06:13:57;;;;;;;9.10;8.20;;;5.70;99.90;;;;;;5054281;28;20413;-69
2022/03/16 06:16:22;;;;;;;9.90;8.90;;;5.70;99.90;;;;;;5055033;28;20781;-69
2022/03/16 06:18:48;;;;;;;9.33;8.43;;;5.80;99.90;;;;;;5054139;28;20673;-69
2022/03/16 06:21:14;;;;;;;11.98;8.93;;;5.70;99.90;;;;;;5054688;28;20229;-69
2022/03/16 06:23:40;;;;;;;9.20;8.10;;;5.70;99.90;;;;;;5054155;28;20641;-69
2022/03/16 06:26:06;;;;;;;9.27;8.47;;;5.60;99.90;;;;;;5054638;28;20443;-69
2022/03/16 06:28:32;;;;;;;9.00;7.83;;;5.60;99.90;;;;;;5054601;28;20174;-69
2022/03/16 06:30:58;;;;;;;9.65;8.65;;;5.70;99.90;;;;;;5053536;28;20267;-69
2022/03/16 06:33:24;;;;;;;9.40;8.40;;;5.70;99.90;;;;;;5054482;28;20225;-69
2022/03/16 06:35:49;;;;;;;10.30;9.40;;;5.70;99.90;;;;;;5052656;28;20505;-69
2022/03/16 06:38:15;;;;;;;9.87;8.87;;;5.70;99.90;;;;;;5054076;28;20197;-69
2022/03/16 06:40:41;;;;;;;10.03;8.70;;;5.70;99.90;;;;;;5052458;28;20618;-69
2022/03/16 06:43:07;;;;;;;9.87;8.87;;;5.80;99.90;;;;;;5054275;28;20174;-69
2022/03/16 06:45:33;;;;;;;9.27;8.38;;;5.90;99.90;;;;;;5054259;28;20565;-69
2022/03/16 06:48:00;;;;;;;10.15;9.15;;;5.80;99.90;;;;;;5053522;28;20684;-69
2022/03/16 06:50:27;;;;;;;11.43;10.30;;;5.90;99.90;;;;;;5053789;28;20657;-69
2022/03/16 06:52:54;;;;;;;12.07;9.20;;;5.90;99.90;;;;;;5053397;28;20187;-69
2022/03/16 06:55:20;;;;;;;12.50;11.20;;;6.00;99.90;;;;;;5054052;28;20182;-69
2022/03/16 06:57:46;;;;;;;13.00;11.30;;;6.00;99.90;;;;;;5052552;28;20178;-69
2022/03/16 07:00:14;;;;;;;12.03;10.63;;;6.10;99.90;;;;;;5053726;28;20179;-69
2022/03/16 07:02:58;;;;;;;14.43;10.23;;;6.10;99.90;;;;;;5052714;28;20214;-69
2022/03/16 07:05:32;;;;;;;13.68;11.77;;;6.20;99.90;;;;;;5053870;28;20185;-69
2022/03/16 07:08:00;;;;;;;12.67;11.37;;;6.30;99.90;;;;;;5053665;28;20169;-69
2022/03/16 07:10:27;;;;;;;12.90;11.60;;;6.30;99.90;;;;;;5053734;28;20418;-69
2022/03/16 07:12:53;;;;;;;12.73;10.63;;;6.40;99.90;;;;;;5052858;28;20440;-69
2022/03/16 07:15:20;;;;;;;11.40;10.30;;;6.40;99.90;;;;;;5053991;28;20385;-69
2022/03/16 07:17:46;;;;;;;12.73;11.43;;;6.50;99.90;;;;;;5052494;28;20328;-69
2022/03/16 07:20:11;;;;;;;14.27;11.60;;;6.50;99.90;;;;;;5052856;28;20549;-69
2022/03/16 07:22:38;;;;;;;13.33;12.03;;;6.60;99.90;;;;;;5053352;28;20549;-69
2022/03/16 07:25:05;;;;;;;13.73;12.00;;;6.70;99.90;;;;;;5053542;28;20182;-69
2022/03/16 07:27:31;;;;;;;13.47;11.07;;;6.80;99.90;;;;;;5053599;28;20434;-69
2022/03/16 07:29:56;;;;;;;15.80;12.90;;;6.80;99.90;;;;;;5052875;28;20442;-69
2022/03/16 07:32:22;;;;;;;13.10;11.70;;;6.80;99.90;;;;;;5053784;28;20191;-69
2022/03/16 07:34:49;;;;;;;14.60;13.03;;;6.90;99.90;;;;;;5051785;28;20191;-69
2022/03/16 07:37:14;;;;;;;14.83;13.33;;;7.00;99.90;;;;;;5053219;28;20711;-69
2022/03/16 07:39:41;;;;;;;14.63;12.97;;;7.10;99.90;;;;;;5052713;28;20418;-70
2022/03/16 07:42:06;;;;;;;14.43;13.03;;;7.20;99.90;;;;;;5052337;28;20218;-69
2022/03/16 07:44:32;;;;;;;17.53;14.27;;;7.30;99.90;;;;;;5053149;28;20407;-69
2022/03/16 07:46:59;;;;;;;18.10;14.17;;;7.40;99.90;;;;;;5052231;28;20227;-69
2022/03/16 07:49:25;;;;;;;16.50;13.50;;;7.40;99.90;;;;;;5052839;28;20573;-69
2022/03/16 07:51:51;;;;;;;15.60;13.50;;;7.50;99.90;;;;;;5052356;28;20419;-69
2022/03/16 07:54:17;;;;;;;15.73;14.00;;;7.60;99.90;;;;;;5052867;28;20415;-69
2022/03/16 07:56:43;;;;;;;17.40;15.20;;;7.80;99.90;;;;;;5052386;28;20180;-69
2022/03/16 07:59:09;;;;;;;16.63;14.83;;;7.90;99.90;;;;;;5052580;28;20212;-69
2022/03/16 08:01:35;;;;;;;18.00;13.93;;;7.90;99.90;;;;;;5052534;28;20995;-69
2022/03/16 08:04:00;;;;;;;16.43;13.60;;;7.90;99.90;;;;;;5052259;28;20448;-69
2022/03/16 08:06:26;;;;;;;16.90;12.33;;;8.20;99.90;;;;;;5052837;28;20209;-69
2022/03/16 08:08:53;;;;;;;16.60;12.97;;;8.30;99.90;;;;;;5052067;28;20173;-69
2022/03/16 08:11:18;;;;;;;19.53;16.10;;;8.40;99.90;;;;;;5052696;28;20530;-69
2022/03/16 08:13:44;;;;;;;17.43;14.30;;;8.50;99.90;;;;;;5052179;28;20412;-70
2022/03/16 08:16:10;;;;;;;18.23;13.10;;;8.50;99.90;;;;;;5052790;28;20177;-69
2022/03/16 08:18:37;;;;;;;15.30;13.70;;;8.70;99.90;;;;;;5052862;28;20170;-69
2022/03/16 08:21:03;;;;;;;16.40;12.90;;;8.70;99.90;;;;;;5051692;28;20232;-69
2022/03/16 08:23:29;;;;;;;17.23;13.90;;;8.90;99.90;;;;;;5052100;28;20921;-69
2022/03/16 08:25:57;;;;;;;14.00;12.50;;;9.00;99.90;;;;;;5051694;28;20446;-70
2022/03/16 08:28:23;;;;;;;13.47;12.07;;;9.10;99.90;;;;;;5051078;28;20185;-69
2022/03/16 08:30:48;;;;;;;17.13;13.20;;;9.20;99.90;;;;;;5051560;28;20408;-70
2022/03/16 08:33:15;;;;;;;17.40;14.20;;;9.40;99.90;;;;;;5051808;28;20190;-69
2022/03/16 08:35:42;;;;;;;14.80;13.07;;;9.60;99.90;;;;;;5052131;28;20211;-69
2022/03/16 08:38:08;;;;;;;15.80;12.47;;;9.70;99.90;;;;;;5052409;28;20793;-69
2022/03/16 08:40:34;;;;;;;14.10;11.80;;;9.80;99.90;;;;;;5052477;28;20406;-69
2022/03/16 08:43:00;;;;;;;14.87;12.70;;;9.90;99.90;;;;;;5050548;28;20474;-69
2022/03/16 08:45:27;;;;;;;15.97;11.40;;;10.00;99.90;;;;;;5052545;28;20427;-69
2022/03/16 08:47:53;;;;;;;19.73;13.70;;;10.20;99.90;;;;;;5051715;28;20175;-69
2022/03/16 08:50:18;;;;;;;14.83;13.20;;;10.30;99.90;;;;;;5052159;28;20408;-69
2022/03/16 08:52:44;;;;;;;13.33;11.93;;;10.40;99.90;;;;;;5051652;28;20421;-71
2022/03/16 08:55:12;;;;;;;13.00;11.57;;;10.60;99.90;;;;;;5055879;28;20183;-69
2022/03/16 08:57:38;;;;;;;14.23;12.70;;;10.70;99.90;;;;;;5056125;28;20595;-69
2022/03/16 09:00:04;;;;;;;13.97;11.77;;;10.90;99.90;;;;;;5055305;28;21054;-69
2022/03/16 09:02:30;;;;;;;13.60;12.20;;;11.00;99.90;;;;;;5056323;28;20467;-69
2022/03/16 09:04:56;;;;;;;17.40;11.53;;;11.20;99.90;;;;;;5055299;28;20566;-70
2022/03/16 09:07:22;;;;;;;12.90;11.50;;;11.40;99.90;;;;;;5056077;28;20181;-69
2022/03/16 09:09:48;;;;;;;12.20;10.90;;;11.50;99.90;;;;;;5054303;28;20413;-70
2022/03/16 09:12:15;;;;;;;15.10;11.87;;;11.70;99.40;;;;;;5056107;28;20262;-69
2022/03/16 09:14:41;;;;;;;11.67;10.07;;;11.80;98.50;;;;;;5055713;28;20180;-69
2022/03/16 09:17:10;;;;;;;13.43;11.13;;;11.90;99.10;;;;;;5055157;28;20815;-69
2022/03/16 09:19:36;;;;;;;13.80;12.40;;;11.90;97.30;;;;;;5054408;28;20450;-69
2022/03/16 09:22:04;;;;;;;12.33;10.90;;;12.10;98.10;;;;;;5055311;28;20454;-69
2022/03/16 09:24:30;;;;;;;12.03;10.80;;;12.30;97.40;;;;;;5056211;28;20220;-69
2022/03/16 09:26:58;;;;;;;11.60;10.10;;;12.40;96.80;;;;;;5054959;28;20408;-69
2022/03/16 09:29:24;;;;;;;11.90;10.40;;;12.50;96.60;;;;;;5055506;28;20228;-69
2022/03/16 09:31:49;;;;;;;10.63;9.63;;;12.70;95.90;;;;;;5054553;28;20447;-71
2022/03/16 09:34:15;;;;;;;10.20;9.23;;;12.80;94.40;;;;;;5055094;28;20189;-69
2022/03/16 09:36:45;;;;;;;10.97;9.87;;;12.90;93.80;;;;;;5055679;28;20564;-69
2022/03/16 09:39:11;;;;;;;11.37;9.90;;;12.90;92.90;;;;;;5054826;28;20212;-69
2022/03/16 09:41:37;;;;;;;9.93;8.93;;;13.00;94.60;;;;;;5055102;28;20470;-69
2022/03/16 09:44:04;;;;;;;9.83;8.83;;;13.20;94.20;;;;;;5054851;28;20184;-69
2022/03/16 09:46:33;;;;;;;9.93;9.00;;;13.10;92.50;;;;;;5055635;28;20266;-70
2022/03/16 09:48:59;;;;;;;8.70;7.90;;;13.20;92.10;;;;;;5054758;28;20511;-70
2022/03/16 09:51:34;;;;;;;9.40;8.50;;;13.20;91.90;;;;;;5055110;28;20442;-70
2022/03/16 09:54:04;;;;;;;9.50;8.60;;;13.30;91.70;;;;;;5054410;28;20406;-70
2022/03/16 09:56:30;;;;;;;9.23;8.43;;;13.30;91.60;;;;;;5054851;28;20415;-70
2022/03/16 09:58:56;;;;;;;9.53;7.90;;;13.30;91.40;;;;;;5053773;28;20759;-71
2022/03/16 10:01:22;;;;;;;9.07;8.27;;;13.40;91.20;;;;;;5054488;28;20472;-70
2022/03/16 10:03:49;;;;;;;10.00;9.00;;;13.30;90.40;;;;;;5054416;28;20413;-71
2022/03/16 10:06:17;;;;;;;9.63;8.67;;;13.20;90.70;;;;;;5054283;28;20230;-69
2022/03/16 10:13:13;;;;;;;10.67;9.00;;;13.30;91.50;;;;;;5055111;28;20414;-70
2022/03/16 10:14:17;;;;;;;8.27;7.53;;;13.90;90.80;;;;;;5054986;28;20913;-70
2022/03/16 10:19:50;;;;;;;8.73;7.83;;;14.50;90.10;;;;;;5054044;28;20457;-71
2022/03/16 10:22:26;;;;;;;8.53;7.73;;;14.70;87.50;;;;;;5054901;28;20453;-70
2022/03/16 10:25:03;;;;;;;10.07;9.07;;;15.00;88.60;;;;;;5054285;28;20420;-70
2022/03/16 10:27:30;;;;;;;8.50;7.63;;;15.10;85.40;;;;;;5054770;28;20394;-70
2022/03/16 10:29:56;;;;;;;9.10;8.30;;;15.10;84.00;;;;;;5052948;28;20454;-70
2022/03/16 10:32:23;;;;;;;10.50;9.50;;;15.10;83.50;;;;;;5054195;28;20445;-70
2022/03/16 10:34:53;;;;;;;10.50;9.60;;;15.40;85.20;;;;;;5054665;28;20477;-70
2022/03/16 10:37:23;;;;;;;10.63;9.63;;;15.60;83.50;;;;;;5054751;28;20425;-70
2022/03/16 10:39:51;;;;;;;9.97;8.97;;;15.80;83.40;;;;;;5054297;28;20405;-69
2022/03/16 10:48:01;;;;;;;10.87;9.77;;;17.00;78.60;;;;;;5053814;28;20399;-70
2022/03/16 10:50:26;;;;;;;10.20;9.30;;;17.30;76.00;;;;;;5054338;28;20408;-70
2022/03/16 10:52:53;;;;;;;10.13;9.13;;;17.40;75.40;;;;;;5053744;28;20408;-70
2022/03/16 10:55:20;;;;;;;11.13;10.10;;;17.20;73.00;;;;;;5054232;28;20412;-70
2022/03/16 10:57:50;;;;;;;9.70;8.70;;;17.30;74.40;;;;;;5054121;28;20771;-70
2022/03/16 11:00:19;;;;;;;9.37;8.53;;;17.50;73.30;;;;;;5053353;28;20408;-70
2022/03/16 11:02:45;;;;;;;10.20;9.30;;;17.70;73.40;;;;;;5052847;28;20470;-69
2022/03/16 11:05:12;;;;;;;11.30;9.83;;;17.70;69.40;;;;;;5053484;28;20649;-70
2022/03/16 11:07:39;;;;;;;9.93;9.10;;;17.90;70.90;;;;;;5054279;28;20442;-70
2022/03/16 11:10:07;;;;;;;9.37;8.50;;;17.40;69.20;;;;;;5053058;28;20869;-70
2022/03/16 11:15:19;;;;;;;10.50;9.67;;;17.30;70.60;;;;;;5053921;28;20411;-69
2022/03/16 11:17:45;;;;;;;10.77;9.77;;;17.10;71.10;;;;;;5053860;28;20404;-70
2022/03/16 11:20:12;;;;;;;11.13;10.00;;;16.70;71.20;;;;;;5052976;28;20785;-70
2022/03/16 11:25:34;;;;;;;9.80;8.90;;;16.90;72.50;;;;;;5053162;28;20877;-70
2022/03/16 11:28:07;;;;;;;10.60;9.70;;;17.20;72.20;;;;;;5051377;28;20408;-70
2022/03/16 11:30:37;;;;;;;10.43;9.53;;;17.40;72.00;;;;;;5053418;28;20416;-70
2022/03/16 11:33:16;;;;;;;11.00;10.10;;;17.70;70.50;;;;;;5053145;28;20431;-70
2022/03/16 11:35:45;;;;;;;10.10;9.20;;;17.90;70.80;;;;;;5053205;28;20812;-70
2022/03/16 11:38:13;;;;;;;9.67;8.77;;;18.00;69.50;;;;;;5052799;28;20462;-70
2022/03/16 11:40:46;;;;;;;10.53;9.50;;;18.10;67.90;;;;;;5053226;28;20416;-70
2022/03/16 11:43:12;;;;;;;10.70;9.70;;;18.10;68.90;;;;;;5052722;28;20413;-70
2022/03/16 11:46:20;;;;;;;10.03;9.13;;;18.30;70.20;;;;;;5053458;28;20419;-70
2022/03/16 11:48:41;;;;;;;10.30;9.50;;;18.30;69.30;;;;;;5051925;28;20419;-70
2022/03/16 11:51:09;;;;;;;10.47;9.37;;;18.50;69.50;;;;;;5052637;28;20426;-70
2022/03/16 11:56:26;;;;;;;10.60;9.60;;;18.60;67.70;;;;;;5052645;28;20407;-71
2022/03/16 11:58:53;;;;;;;11.33;10.33;;;18.70;65.80;;;;;;5053065;28;20400;-69
2022/03/16 12:01:28;;;;;;;9.70;8.80;;;18.50;63.80;;;;;;5052200;28;20499;-70
2022/03/16 12:04:19;;;;;;;13.30;9.67;;;18.50;65.20;;;;;;5052878;28;20406;-70
2022/03/16 12:06:50;;;;;;;10.13;9.33;;;18.40;63.10;;;;;;5052675;28;20404;-70
2022/03/16 12:09:29;;;;;;;9.70;9.00;;;18.30;63.70;;;;;;5052075;28;20428;-70
2022/03/16 12:15:20;;;;;;;10.00;9.10;;;18.00;63.20;;;;;;5052091;28;20496;-71
2022/03/16 12:17:51;;;;;;;10.20;9.40;;;17.80;63.40;;;;;;5052544;28;20408;-70
2022/03/16 12:20:31;;;;;;;10.57;9.63;;;18.00;62.90;;;;;;5051937;28;20499;-71
2022/03/16 12:23:09;;;;;;;10.27;9.30;;;18.00;64.80;;;;;;5051928;28;20490;-71
2022/03/16 12:25:37;;;;;;;10.37;9.57;;;18.10;61.80;;;;;;5052632;28;20416;-70
2022/03/16 12:31:00;;;;;;;9.40;8.50;;;18.10;63.40;;;;;;5052752;28;20420;-70
2022/03/16 12:33:26;;;;;;;10.60;9.60;;;18.30;61.40;;;;;;5051443;28;20396;-70
2022/03/16 12:36:04;;;;;;;9.47;8.70;;;17.90;59.70;;;;;;5067946;28;20928;-70
2022/03/16 12:38:35;;;;;;;7.93;7.23;;;17.40;60.20;;;;;;5052070;28;20445;-70
2022/03/16 12:43:48;;;;;;;10.33;9.13;;;17.00;62.90;;;;;;5052245;28;20436;-69
2022/03/16 12:46:24;;;;;;;8.60;7.90;;;17.20;66.60;;;;;;5051791;28;20408;-70
2022/03/16 12:48:55;;;;;;;8.57;7.77;;;17.20;64.00;;;;;;5052374;28;20428;-70
2022/03/16 12:51:44;;;;;;;9.30;8.50;;;17.30;63.60;;;;;;5051742;28;20538;-70
2022/03/16 12:54:13;;;;;;;9.23;8.43;;;17.20;62.10;;;;;;5051717;28;20924;-70
2022/03/16 12:56:44;;;;;;;8.13;7.33;;;17.10;62.00;;;;;;5052350;28;20481;-70
2022/03/16 12:59:24;;;;;;;8.17;7.47;;;17.10;63.10;;;;;;5051679;28;20408;-70
2022/03/16 13:01:51;;;;;;;7.67;6.93;;;17.20;63.20;;;;;;5052529;28;20464;-70
2022/03/16 13:04:19;;;;;;;8.60;7.90;;;17.20;61.60;;;;;;5050375;28;20789;-70
2022/03/16 13:06:46;;;;;;;8.37;7.60;;;17.10;61.90;;;;;;5051897;28;20414;-70
2022/03/16 13:09:11;;;;;;;7.50;6.90;;;16.80;61.90;;;;;;5051243;28;20416;-70